Terminal Aerodrome Forecast
Issued by NWS

Home | Current Version | Previous Version | Text Only | Print | Product List | Glossary On
Versions: 1 2 3 4 5 6 7 8 9 10 11 12 13 14 15 16 17 18
000
FTUS43 KGLD 181751 CCA
TAFMCK
TAF COR
KMCK 181751Z 1818/1918 34023G36KT P6SM BKN050
     FM190000 35014G25KT P6SM FEW060 FEW250
     FM190200 36006KT P6SM SKC
     FM191500 13005KT P6SM FEW015 FEW200=

USA.gov is the U.S. government's official web portal to all federal, state and local government web resources and services.